Time;durP1;ratioP1;P1;durP2;ratioP2;P2;SDS_P1;SDS_P2;PMS_P1;PMS_P2;Temp;Humidity;BMP_temperature;BMP_pressure;BME280_temperature;BME280_humidity;BME280_pressure;Samples;Min_cycle;Max_cycle;Signal;HPM_P1;HPM_P2
2023/08/30 00:00:36;;;;;;;0.10;0.10;;;;;;;;;;5118457;28;20078;-42
2023/08/30 00:03:01;;;;;;;0.10;0.10;;;;;;;;;;5117877;28;20146;-43
2023/08/30 00:05:27;;;;;;;0.10;0.10;;;;;;;;;;5116763;28;20047;-45
2023/08/30 00:07:53;;;;;;;0.10;0.10;;;;;;;;;;5117359;28;20262;-45
2023/08/30 00:10:19;;;;;;;0.10;0.10;;;;;;;;;;5117308;28;20053;-43
2023/08/30 00:12:44;;;;;;;0.10;0.10;;;;;;;;;;5117298;28;20051;-42
2023/08/30 00:15:10;;;;;;;0.10;0.10;;;;;;;;;;5106138;27;20495;-44
2023/08/30 00:17:35;;;;;;;0.10;0.10;;;;;;;;;;5100135;28;20102;-43
2023/08/30 00:20:02;;;;;;;0.10;0.10;;;;;;;;;;5117729;28;20086;-44
2023/08/30 00:22:28;;;;;;;0.10;0.10;;;;;;;;;;5117356;28;20055;-43
2023/08/30 00:24:53;;;;;;;0.10;0.10;;;;;;;;;;5117245;28;20111;-43
2023/08/30 00:27:20;;;;;;;0.10;0.10;;;;;;;;;;5116873;28;20046;-42
2023/08/30 00:29:46;;;;;;;0.10;0.10;;;;;;;;;;5117147;28;20530;-43
2023/08/30 00:32:11;;;;;;;0.10;0.10;;;;;;;;;;5117205;28;20043;-45
2023/08/30 00:34:37;;;;;;;0.10;0.10;;;;;;;;;;5116484;28;20043;-45
2023/08/30 00:37:03;;;;;;;0.10;0.10;;;;;;;;;;5116962;28;20490;-42
2023/08/30 00:39:28;;;;;;;0.10;0.10;;;;;;;;;;5116143;28;20048;-44
2023/08/30 00:41:54;;;;;;;0.10;0.10;;;;;;;;;;5117055;28;20470;-44
2023/08/30 00:44:19;;;;;;;0.10;0.10;;;;;;;;;;5117186;28;20194;-43
2023/08/30 00:46:45;;;;;;;0.10;0.10;;;;;;;;;;5117145;28;20314;-43
2023/08/30 00:49:10;;;;;;;0.10;0.10;;;;;;;;;;5109757;28;20055;-42
2023/08/30 00:51:36;;;;;;;0.10;0.10;;;;;;;;;;5117370;28;20049;-43
2023/08/30 00:54:02;;;;;;;0.10;0.10;;;;;;;;;;5116646;28;20051;-44
2023/08/30 00:56:28;;;;;;;0.10;0.10;;;;;;;;;;5117149;28;20061;-43
2023/08/30 00:58:53;;;;;;;0.10;0.10;;;;;;;;;;5109562;28;20051;-43
2023/08/30 01:01:19;;;;;;;0.10;0.10;;;;;;;;;;5117948;28;20251;-43
2023/08/30 01:03:45;;;;;;;0.10;0.10;;;;;;;;;;5116902;28;20054;-44
2023/08/30 01:06:10;;;;;;;0.10;0.10;;;;;;;;;;5116131;27;20043;-43
2023/08/30 01:08:37;;;;;;;0.10;0.10;;;;;;;;;;5108978;28;20051;-43
2023/08/30 01:11:24;;;;;;;0.10;0.10;;;;;;;;;;5116653;28;20051;-44
2023/08/30 01:13:55;;;;;;;0.10;0.10;;;;;;;;;;5100729;28;20137;-43
2023/08/30 01:16:23;;;;;;;0.10;0.10;;;;;;;;;;5095945;28;21084;-43
2023/08/30 01:18:51;;;;;;;0.10;0.10;;;;;;;;;;5088799;28;20047;-44
2023/08/30 01:21:23;;;;;;;0.10;0.10;;;;;;;;;;5096619;28;20523;-42
2023/08/30 01:23:56;;;;;;;0.10;0.10;;;;;;;;;;5095877;28;20070;-43
2023/08/30 01:26:29;;;;;;;0.10;0.10;;;;;;;;;;5096370;28;20105;-43
2023/08/30 01:28:55;;;;;;;0.10;0.10;;;;;;;;;;5094535;28;20462;-42
2023/08/30 01:31:21;;;;;;;0.10;0.10;;;;;;;;;;5096176;28;20876;-41
2023/08/30 01:33:48;;;;;;;0.10;0.10;;;;;;;;;;5095129;28;20699;-43
2023/08/30 01:36:14;;;;;;;0.10;0.10;;;;;;;;;;5095243;28;20488;-45
2023/08/30 01:38:40;;;;;;;0.10;0.10;;;;;;;;;;5095343;28;20551;-44
2023/08/30 01:41:06;;;;;;;0.10;0.10;;;;;;;;;;5095266;28;20305;-42
2023/08/30 01:43:32;;;;;;;0.10;0.10;;;;;;;;;;5094921;28;20127;-42
2023/08/30 01:45:59;;;;;;;0.10;0.10;;;;;;;;;;5095228;28;20048;-43
2023/08/30 01:48:26;;;;;;;0.10;0.10;;;;;;;;;;5095470;28;20043;-43
2023/08/30 01:50:54;;;;;;;0.10;0.10;;;;;;;;;;5095759;28;20051;-42
2023/08/30 01:53:20;;;;;;;0.10;0.10;;;;;;;;;;5095348;28;20652;-42
2023/08/30 01:55:46;;;;;;;0.10;0.10;;;;;;;;;;5095069;28;20104;-44
2023/08/30 01:58:11;;;;;;;0.10;0.10;;;;;;;;;;5095389;28;20142;-43
2023/08/30 02:00:39;;;;;;;0.10;0.10;;;;;;;;;;5095266;28;20044;-44
2023/08/30 02:03:12;;;;;;;0.10;0.10;;;;;;;;;;5094957;28;20051;-43
2023/08/30 02:05:42;;;;;;;0.10;0.10;;;;;;;;;;5094661;28;20047;-42
2023/08/30 02:08:12;;;;;;;0.10;0.10;;;;;;;;;;5088216;28;20045;-45
2023/08/30 02:10:40;;;;;;;0.10;0.10;;;;;;;;;;5094326;28;20082;-43
2023/08/30 02:13:06;;;;;;;0.10;0.10;;;;;;;;;;5095457;28;20128;-42
2023/08/30 02:15:32;;;;;;;0.10;0.10;;;;;;;;;;5095065;28;20063;-42
2023/08/30 02:17:59;;;;;;;0.10;0.10;;;;;;;;;;5088981;28;20052;-42
2023/08/30 02:20:26;;;;;;;0.10;0.10;;;;;;;;;;5096083;28;20047;-44
2023/08/30 02:22:51;;;;;;;0.10;0.10;;;;;;;;;;5098405;28;20101;-44
2023/08/30 02:25:17;;;;;;;0.10;0.10;;;;;;;;;;5098884;28;20055;-43
2023/08/30 02:27:42;;;;;;;0.10;0.10;;;;;;;;;;5094650;28;20388;-42
2023/08/30 02:30:08;;;;;;;0.10;0.10;;;;;;;;;;5093088;28;20040;-44
2023/08/30 02:32:34;;;;;;;0.10;0.10;;;;;;;;;;5098422;28;20742;-42
2023/08/30 02:34:59;;;;;;;0.10;0.10;;;;;;;;;;5097856;28;20055;-42
2023/08/30 02:37:25;;;;;;;0.10;0.10;;;;;;;;;;5098274;28;20044;-42
2023/08/30 02:39:50;;;;;;;0.10;0.10;;;;;;;;;;5098456;28;20052;-44
2023/08/30 02:42:16;;;;;;;0.10;0.10;;;;;;;;;;5098718;28;20096;-43
2023/08/30 02:44:42;;;;;;;0.10;0.10;;;;;;;;;;5098343;28;20052;-43
2023/08/30 02:47:07;;;;;;;0.10;0.10;;;;;;;;;;5098094;28;20412;-43
2023/08/30 02:49:33;;;;;;;0.10;0.10;;;;;;;;;;5098627;28;20852;-44
2023/08/30 02:51:58;;;;;;;0.10;0.10;;;;;;;;;;5099127;28;20747;-43
2023/08/30 02:54:24;;;;;;;0.10;0.10;;;;;;;;;;5098151;28;20284;-42
2023/08/30 02:56:49;;;;;;;0.10;0.10;;;;;;;;;;5098761;28;20439;-42
2023/08/30 02:59:15;;;;;;;0.10;0.10;;;;;;;;;;5097644;28;20150;-43
2023/08/30 03:01:40;;;;;;;0.10;0.10;;;;;;;;;;5098246;28;20059;-44
2023/08/30 03:04:06;;;;;;;0.10;0.10;;;;;;;;;;5097331;28;20072;-43
2023/08/30 03:06:32;;;;;;;0.10;0.10;;;;;;;;;;5098346;28;20095;-43
2023/08/30 03:08:58;;;;;;;0.10;0.10;;;;;;;;;;5086777;28;20087;-43
2023/08/30 03:11:23;;;;;;;0.10;0.10;;;;;;;;;;5097938;28;20244;-43
2023/08/30 03:13:50;;;;;;;0.20;0.20;;;;;;;;;;5098253;28;20138;-43
2023/08/30 03:16:16;;;;;;;0.10;0.10;;;;;;;;;;5117922;28;20123;-43
2023/08/30 03:18:42;;;;;;;0.10;0.10;;;;;;;;;;5094212;28;20056;-43
2023/08/30 03:21:08;;;;;;;0.10;0.10;;;;;;;;;;5098273;28;20047;-43
2023/08/30 03:23:35;;;;;;;0.10;0.10;;;;;;;;;;5097889;28;20444;-42
2023/08/30 03:26:16;;;;;;;0.10;0.10;;;;;;;;;;5097985;28;20108;-43
2023/08/30 03:28:42;;;;;;;0.10;0.10;;;;;;;;;;5098090;28;20040;-44
2023/08/30 03:31:11;;;;;;;0.10;0.10;;;;;;;;;;5096844;28;20067;-43
2023/08/30 03:33:37;;;;;;;0.10;0.10;;;;;;;;;;5097626;28;20364;-43
2023/08/30 03:36:03;;;;;;;0.10;0.10;;;;;;;;;;5097689;28;20043;-44
2023/08/30 03:38:28;;;;;;;0.10;0.10;;;;;;;;;;5098153;28;20047;-44
2023/08/30 03:40:54;;;;;;;0.10;0.10;;;;;;;;;;5097163;28;20420;-43
2023/08/30 03:43:19;;;;;;;0.20;0.20;;;;;;;;;;5097098;28;20134;-43
2023/08/30 03:45:45;;;;;;;0.10;0.10;;;;;;;;;;5097241;28;20043;-43
2023/08/30 03:48:11;;;;;;;0.10;0.10;;;;;;;;;;5097756;28;20043;-44
2023/08/30 03:50:37;;;;;;;0.10;0.10;;;;;;;;;;5097401;28;20048;-43
2023/08/30 03:53:02;;;;;;;0.10;0.10;;;;;;;;;;5097148;28;20056;-43
2023/08/30 03:55:28;;;;;;;0.10;0.10;;;;;;;;;;5097474;28;20558;-43
2023/08/30 03:57:53;;;;;;;0.10;0.10;;;;;;;;;;5091887;28;20055;-43
2023/08/30 04:00:19;;;;;;;0.10;0.10;;;;;;;;;;5090531;28;20050;-43
2023/08/30 04:02:44;;;;;;;0.10;0.10;;;;;;;;;;5097333;28;20071;-44
2023/08/30 04:05:10;;;;;;;0.10;0.10;;;;;;;;;;5097056;28;20047;-43
2023/08/30 04:07:36;;;;;;;0.10;0.10;;;;;;;;;;5094329;28;20054;-43
2023/08/30 04:10:05;;;;;;;0.10;0.10;;;;;;;;;;5087356;28;20047;-43
2023/08/30 04:12:31;;;;;;;0.10;0.10;;;;;;;;;;5097047;28;20450;-42
2023/08/30 04:14:57;;;;;;;0.10;0.10;;;;;;;;;;5110566;28;20043;-43
2023/08/30 04:17:23;;;;;;;0.10;0.10;;;;;;;;;;5115138;28;20657;-43
2023/08/30 04:19:51;;;;;;;0.10;0.10;;;;;;;;;;5084833;28;20035;-44
2023/08/30 04:22:17;;;;;;;0.10;0.10;;;;;;;;;;5096066;28;20055;-43
2023/08/30 04:24:43;;;;;;;0.17;0.17;;;;;;;;;;5095457;28;20475;-43
2023/08/30 04:27:09;;;;;;;0.10;0.10;;;;;;;;;;5096348;28;20488;-43
2023/08/30 04:29:34;;;;;;;0.20;0.20;;;;;;;;;;5096582;28;20197;-43
2023/08/30 04:32:00;;;;;;;0.10;0.10;;;;;;;;;;5096230;28;20138;-44
2023/08/30 04:34:26;;;;;;;0.20;0.20;;;;;;;;;;5095728;28;20085;-43
2023/08/30 04:36:51;;;;;;;0.10;0.10;;;;;;;;;;5096367;28;20471;-44
2023/08/30 04:39:17;;;;;;;0.10;0.10;;;;;;;;;;5082119;28;20150;-43
2023/08/30 04:41:42;;;;;;;0.20;0.20;;;;;;;;;;5095970;28;20480;-43
2023/08/30 04:44:08;;;;;;;0.10;0.10;;;;;;;;;;5096185;28;20485;-44
2023/08/30 04:46:45;;;;;;;0.10;0.10;;;;;;;;;;5096372;28;20092;-43
2023/08/30 04:49:11;;;;;;;0.10;0.10;;;;;;;;;;5081755;28;20871;-43
2023/08/30 04:51:36;;;;;;;0.10;0.10;;;;;;;;;;5096641;28;20075;-43
2023/08/30 04:54:02;;;;;;;0.10;0.10;;;;;;;;;;5095731;28;20051;-43
2023/08/30 04:56:28;;;;;;;0.20;0.20;;;;;;;;;;5096072;28;20105;-42
2023/08/30 04:58:53;;;;;;;0.10;0.10;;;;;;;;;;5082708;28;20356;-43
2023/08/30 05:01:19;;;;;;;0.10;0.10;;;;;;;;;;5094151;28;20050;-43
2023/08/30 05:03:44;;;;;;;0.10;0.10;;;;;;;;;;5095966;28;20071;-43
2023/08/30 05:06:12;;;;;;;0.20;0.20;;;;;;;;;;5088743;28;20059;-43
2023/08/30 05:08:37;;;;;;;0.10;0.10;;;;;;;;;;5087855;28;20078;-43
2023/08/30 05:11:02;;;;;;;0.10;0.10;;;;;;;;;;5096068;28;20047;-43
2023/08/30 05:13:31;;;;;;;0.10;0.10;;;;;;;;;;5095553;28;20400;-43
2023/08/30 05:15:57;;;;;;;0.10;0.10;;;;;;;;;;5085200;28;20614;-43
2023/08/30 05:18:22;;;;;;;0.17;0.17;;;;;;;;;;5085387;28;20055;-43
2023/08/30 05:20:48;;;;;;;0.10;0.10;;;;;;;;;;5095853;28;20043;-43
2023/08/30 05:23:13;;;;;;;0.10;0.10;;;;;;;;;;5094170;28;20085;-54
2023/08/30 05:25:39;;;;;;;0.20;0.20;;;;;;;;;;5095444;28;20056;-55
2023/08/30 05:28:05;;;;;;;0.20;0.20;;;;;;;;;;5094455;28;20487;-44
2023/08/30 05:30:30;;;;;;;0.15;0.15;;;;;;;;;;5095270;28;20397;-58
2023/08/30 05:32:56;;;;;;;0.10;0.10;;;;;;;;;;5092253;28;20483;-48
2023/08/30 05:35:21;;;;;;;0.10;0.10;;;;;;;;;;5087549;28;20059;-42
2023/08/30 05:37:47;;;;;;;0.10;0.10;;;;;;;;;;5086044;28;20044;-43
2023/08/30 05:40:16;;;;;;;0.17;0.17;;;;;;;;;;5082811;28;20082;-42
2023/08/30 05:42:42;;;;;;;0.10;0.10;;;;;;;;;;5086653;28;20043;-53
2023/08/30 05:45:08;;;;;;;0.20;0.20;;;;;;;;;;5081331;28;20044;-44
2023/08/30 05:47:33;;;;;;;0.10;0.10;;;;;;;;;;5080716;28;20043;-43
2023/08/30 05:49:59;;;;;;;0.10;0.10;;;;;;;;;;5079733;28;20052;-43
2023/08/30 05:52:25;;;;;;;0.10;0.10;;;;;;;;;;5079783;28;20397;-44
2023/08/30 05:54:50;;;;;;;0.15;0.15;;;;;;;;;;5081337;28;20058;-43
2023/08/30 05:57:16;;;;;;;0.10;0.10;;;;;;;;;;5074780;28;20076;-43
2023/08/30 05:59:42;;;;;;;0.20;0.20;;;;;;;;;;5076668;28;20197;-43
2023/08/30 06:02:07;;;;;;;0.32;0.30;;;;;;;;;;5069391;28;20441;-44
2023/08/30 06:04:33;;;;;;;0.10;0.10;;;;;;;;;;5069446;28;20044;-43
2023/08/30 06:06:58;;;;;;;0.10;0.10;;;;;;;;;;5077922;28;20179;-43
2023/08/30 06:09:24;;;;;;;0.10;0.10;;;;;;;;;;5068812;28;20074;-43
2023/08/30 06:11:49;;;;;;;0.20;0.20;;;;;;;;;;5068027;28;20054;-43
2023/08/30 06:14:15;;;;;;;0.20;0.20;;;;;;;;;;5073720;28;20624;-43
2023/08/30 06:16:44;;;;;;;0.20;0.20;;;;;;;;;;5070273;28;20561;-43
2023/08/30 06:19:11;;;;;;;0.15;0.15;;;;;;;;;;5076769;28;20094;-43
2023/08/30 06:21:36;;;;;;;0.10;0.10;;;;;;;;;;5086227;28;20552;-43
2023/08/30 06:24:02;;;;;;;0.15;0.15;;;;;;;;;;5077962;28;20056;-43
2023/08/30 06:26:27;;;;;;;0.10;0.10;;;;;;;;;;5085796;28;20455;-44
2023/08/30 06:28:53;;;;;;;0.15;0.15;;;;;;;;;;5077473;28;20070;-43
2023/08/30 06:31:21;;;;;;;0.10;0.10;;;;;;;;;;5084609;28;20527;-44
2023/08/30 06:33:48;;;;;;;0.10;0.10;;;;;;;;;;5086153;28;20036;-43
2023/08/30 06:36:15;;;;;;;0.38;0.22;;;;;;;;;;5078777;28;20717;-43
2023/08/30 06:38:41;;;;;;;0.20;0.20;;;;;;;;;;5075954;28;20112;-43
2023/08/30 06:41:06;;;;;;;0.10;0.10;;;;;;;;;;5077387;28;20044;-44
2023/08/30 06:43:32;;;;;;;0.10;0.10;;;;;;;;;;5086052;28;20696;-44
2023/08/30 06:45:59;;;;;;;0.10;0.10;;;;;;;;;;5078777;28;20610;-43
2023/08/30 06:48:24;;;;;;;0.10;0.10;;;;;;;;;;5079577;28;20048;-43
2023/08/30 06:50:50;;;;;;;0.10;0.10;;;;;;;;;;5078791;28;20059;-43
2023/08/30 06:53:16;;;;;;;0.10;0.10;;;;;;;;;;5076767;28;20039;-43
2023/08/30 06:55:41;;;;;;;0.10;0.10;;;;;;;;;;5078340;28;20048;-43
2023/08/30 06:58:07;;;;;;;0.10;0.10;;;;;;;;;;5080108;28;20078;-43
2023/08/30 07:00:33;;;;;;;0.10;0.10;;;;;;;;;;5067338;28;20055;-43
2023/08/30 07:02:59;;;;;;;0.10;0.10;;;;;;;;;;5067938;28;20036;-43
2023/08/30 07:05:24;;;;;;;0.10;0.10;;;;;;;;;;5065919;28;20465;-43
2023/08/30 07:07:50;;;;;;;0.10;0.10;;;;;;;;;;5063845;28;20841;-43
2023/08/30 07:10:16;;;;;;;0.38;0.20;;;;;;;;;;5070438;28;20055;-43
2023/08/30 07:12:41;;;;;;;0.10;0.10;;;;;;;;;;5071295;28;20047;-43
2023/08/30 07:15:07;;;;;;;0.10;0.10;;;;;;;;;;5076148;28;20120;-42
2023/08/30 07:17:33;;;;;;;0.10;0.10;;;;;;;;;;5079946;28;20074;-42
2023/08/30 07:20:16;;;;;;;0.10;0.10;;;;;;;;;;5078640;28;20043;-44
2023/08/30 07:22:41;;;;;;;0.10;0.10;;;;;;;;;;5080036;28;20432;-42
2023/08/30 07:25:08;;;;;;;0.10;0.10;;;;;;;;;;5077285;28;20052;-43
2023/08/30 07:27:34;;;;;;;0.10;0.10;;;;;;;;;;5085573;28;20154;-42
2023/08/30 07:30:01;;;;;;;0.20;0.20;;;;;;;;;;5079305;28;20320;-42
2023/08/30 07:32:27;;;;;;;0.10;0.10;;;;;;;;;;5084020;28;20229;-44
2023/08/30 07:34:52;;;;;;;0.20;0.20;;;;;;;;;;5077284;28;20400;-42
2023/08/30 07:37:19;;;;;;;0.10;0.10;;;;;;;;;;5080454;28;20135;-42
2023/08/30 07:39:45;;;;;;;0.10;0.10;;;;;;;;;;5079124;28;20048;-45
2023/08/30 07:42:10;;;;;;;0.20;0.20;;;;;;;;;;5080501;28;20093;-43
2023/08/30 07:44:36;;;;;;;0.10;0.10;;;;;;;;;;5082886;28;20059;-42
2023/08/30 07:47:01;;;;;;;0.10;0.10;;;;;;;;;;5084530;28;20448;-43
2023/08/30 07:49:27;;;;;;;0.10;0.10;;;;;;;;;;5082985;28;20054;-42
2023/08/30 07:51:52;;;;;;;0.10;0.10;;;;;;;;;;5083891;28;20441;-45
2023/08/30 07:54:18;;;;;;;0.10;0.10;;;;;;;;;;5083228;28;20481;-43
2023/08/30 07:56:43;;;;;;;0.10;0.10;;;;;;;;;;5076606;28;20040;-43
2023/08/30 07:59:09;;;;;;;0.10;0.10;;;;;;;;;;5086177;28;20452;-44
2023/08/30 08:01:35;;;;;;;0.10;0.10;;;;;;;;;;5083361;28;20479;-42
2023/08/30 08:04:00;;;;;;;0.10;0.10;;;;;;;;;;5072425;28;20457;-42
2023/08/30 08:06:33;;;;;;;0.10;0.10;;;;;;;;;;5068022;28;20054;-43
2023/08/30 08:09:00;;;;;;;0.10;0.10;;;;;;;;;;5071394;28;20043;-43
2023/08/30 08:11:26;;;;;;;0.10;0.10;;;;;;;;;;5073078;28;20101;-43
2023/08/30 08:13:51;;;;;;;0.10;0.10;;;;;;;;;;5079785;28;20859;-43
2023/08/30 08:16:17;;;;;;;0.28;0.28;;;;;;;;;;5074351;28;20307;-43
2023/08/30 08:18:42;;;;;;;0.10;0.10;;;;;;;;;;5064137;28;20713;-44
2023/08/30 08:21:08;;;;;;;0.10;0.10;;;;;;;;;;5074991;28;20418;-43
2023/08/30 08:23:34;;;;;;;0.10;0.10;;;;;;;;;;5076440;28;20461;-45
2023/08/30 08:26:00;;;;;;;0.20;0.20;;;;;;;;;;5074817;28;20432;-42
2023/08/30 08:28:26;;;;;;;0.10;0.10;;;;;;;;;;5054782;28;20393;-43
2023/08/30 08:30:52;;;;;;;0.10;0.10;;;;;;;;;;5070817;28;20785;-46
2023/08/30 08:33:17;;;;;;;0.20;0.20;;;;;;;;;;5071030;28;20051;-43
2023/08/30 08:35:43;;;;;;;0.10;0.10;;;;;;;;;;5067458;28;20117;-42
2023/08/30 08:38:09;;;;;;;0.10;0.10;;;;;;;;;;5059718;28;20051;-43
2023/08/30 08:40:37;;;;;;;0.10;0.10;;;;;;;;;;5071142;28;20051;-43
2023/08/30 08:43:05;;;;;;;0.10;0.10;;;;;;;;;;5078533;28;20043;-43
2023/08/30 08:45:34;;;;;;;0.10;0.10;;;;;;;;;;5077831;28;20051;-42
2023/08/30 08:48:01;;;;;;;0.10;0.10;;;;;;;;;;5076905;28;20842;-44
2023/08/30 08:50:28;;;;;;;0.10;0.10;;;;;;;;;;5080103;28;20043;-47
2023/08/30 08:52:56;;;;;;;0.10;0.10;;;;;;;;;;5087027;28;20043;-42
2023/08/30 08:55:26;;;;;;;0.10;0.10;;;;;;;;;;5082517;28;20089;-42
2023/08/30 08:57:53;;;;;;;0.10;0.10;;;;;;;;;;5080815;28;20047;-42
2023/08/30 09:00:19;;;;;;;0.10;0.10;;;;;;;;;;5081022;28;20199;-43
2023/08/30 09:02:46;;;;;;;0.10;0.10;;;;;;;;;;5083380;28;20196;-43
2023/08/30 09:05:11;;;;;;;0.10;0.10;;;;;;;;;;5081064;28;20359;-42
2023/08/30 09:07:37;;;;;;;0.10;0.10;;;;;;;;;;5079442;28;20078;-44
2023/08/30 09:10:03;;;;;;;0.10;0.10;;;;;;;;;;5082533;28;20044;-43
2023/08/30 09:12:32;;;;;;;0.10;0.10;;;;;;;;;;5084036;28;20093;-43
2023/08/30 09:14:57;;;;;;;0.10;0.10;;;;;;;;;;5077431;28;20061;-46
2023/08/30 09:17:23;;;;;;;0.10;0.10;;;;;;;;;;5073916;28;20048;-44
2023/08/30 09:19:50;;;;;;;0.10;0.10;;;;;;;;;;5079836;28;20048;-47
2023/08/30 09:22:15;;;;;;;0.10;0.10;;;;;;;;;;5079435;28;20047;-46
2023/08/30 09:24:41;;;;;;;0.10;0.10;;;;;;;;;;5079005;28;20102;-43
2023/08/30 09:27:07;;;;;;;0.10;0.10;;;;;;;;;;5074993;28;20224;-46
2023/08/30 09:29:32;;;;;;;0.10;0.10;;;;;;;;;;5083670;28;20266;-43
2023/08/30 09:31:58;;;;;;;0.10;0.10;;;;;;;;;;5080104;27;20453;-43
2023/08/30 09:34:25;;;;;;;0.10;0.10;;;;;;;;;;5071910;28;20508;-42
2023/08/30 09:36:51;;;;;;;0.10;0.10;;;;;;;;;;5070754;28;20047;-42
2023/08/30 09:39:17;;;;;;;0.10;0.10;;;;;;;;;;5066843;28;20047;-43
2023/08/30 09:41:43;;;;;;;0.10;0.10;;;;;;;;;;5066203;28;20254;-44
2023/08/30 09:44:10;;;;;;;0.10;0.10;;;;;;;;;;5061645;28;20614;-43
2023/08/30 09:46:44;;;;;;;0.10;0.10;;;;;;;;;;5066099;28;20055;-43
2023/08/30 09:49:19;;;;;;;0.10;0.10;;;;;;;;;;5070092;28;20588;-42
2023/08/30 09:51:46;;;;;;;0.10;0.10;;;;;;;;;;5077709;28;20055;-43
2023/08/30 09:54:16;;;;;;;0.10;0.10;;;;;;;;;;5079940;28;20093;-42
2023/08/30 09:57:01;;;;;;;0.10;0.10;;;;;;;;;;5073140;28;20052;-42
2023/08/30 09:59:27;;;;;;;0.10;0.10;;;;;;;;;;5073747;28;20134;-43
2023/08/30 10:01:54;;;;;;;0.10;0.10;;;;;;;;;;5075023;28;20043;-42
2023/08/30 10:04:20;;;;;;;0.10;0.10;;;;;;;;;;5076995;28;20143;-44
2023/08/30 10:06:46;;;;;;;0.10;0.10;;;;;;;;;;5072675;28;20097;-42
2023/08/30 10:09:13;;;;;;;0.10;0.10;;;;;;;;;;5086354;28;20075;-42
2023/08/30 10:11:39;;;;;;;0.10;0.10;;;;;;;;;;5079872;28;20096;-42
2023/08/30 10:14:05;;;;;;;0.10;0.10;;;;;;;;;;5076571;28;20048;-43
2023/08/30 10:16:35;;;;;;;0.10;0.10;;;;;;;;;;5077866;28;20496;-42
2023/08/30 10:19:02;;;;;;;0.10;0.10;;;;;;;;;;5070892;28;20051;-43
2023/08/30 10:21:31;;;;;;;0.17;0.17;;;;;;;;;;5084485;28;20068;-43
2023/08/30 10:23:58;;;;;;;0.10;0.10;;;;;;;;;;5068012;28;20863;-42
2023/08/30 10:26:26;;;;;;;0.10;0.10;;;;;;;;;;5075547;28;20305;-45
2023/08/30 10:28:53;;;;;;;0.10;0.10;;;;;;;;;;5078658;28;20902;-44
2023/08/30 10:31:19;;;;;;;0.10;0.10;;;;;;;;;;5076932;28;20052;-44
2023/08/30 10:33:49;;;;;;;0.10;0.10;;;;;;;;;;5070432;28;20622;-44
2023/08/30 10:36:20;;;;;;;0.10;0.10;;;;;;;;;;5071480;28;20736;-44
2023/08/30 10:38:48;;;;;;;0.10;0.10;;;;;;;;;;5065816;28;20495;-44
2023/08/30 10:41:19;;;;;;;0.10;0.10;;;;;;;;;;5065309;28;20056;-42
2023/08/30 10:43:49;;;;;;;0.10;0.10;;;;;;;;;;5071581;28;20380;-44
2023/08/30 10:46:14;;;;;;;0.10;0.10;;;;;;;;;;5076573;28;20431;-42
2023/08/30 10:48:41;;;;;;;0.10;0.10;;;;;;;;;;5082316;28;21029;-43
2023/08/30 10:51:19;;;;;;;0.10;0.10;;;;;;;;;;5075448;28;20051;-42
2023/08/30 10:53:55;;;;;;;0.10;0.10;;;;;;;;;;5085892;28;20674;-42
2023/08/30 10:56:26;;;;;;;0.10;0.10;;;;;;;;;;5074201;28;20048;-43
2023/08/30 10:58:51;;;;;;;0.10;0.10;;;;;;;;;;5084106;27;20047;-45
2023/08/30 11:01:18;;;;;;;0.10;0.10;;;;;;;;;;5081846;28;20365;-44
2023/08/30 11:03:44;;;;;;;0.10;0.10;;;;;;;;;;5090004;28;20051;-45
2023/08/30 11:06:13;;;;;;;0.10;0.10;;;;;;;;;;5068116;28;20488;-44
2023/08/30 11:08:39;;;;;;;0.10;0.10;;;;;;;;;;5073283;28;20514;-43
2023/08/30 11:11:05;;;;;;;0.10;0.10;;;;;;;;;;5073091;28;20439;-44
2023/08/30 11:13:30;;;;;;;0.10;0.10;;;;;;;;;;5078147;28;20664;-43
2023/08/30 11:16:04;;;;;;;0.10;0.10;;;;;;;;;;5085457;28;20143;-45
2023/08/30 11:18:30;;;;;;;0.10;0.10;;;;;;;;;;5061004;28;20043;-43
2023/08/30 11:21:02;;;;;;;0.10;0.10;;;;;;;;;;5070735;28;20058;-43
2023/08/30 11:23:28;;;;;;;0.10;0.10;;;;;;;;;;5063235;28;20071;-43
2023/08/30 11:25:54;;;;;;;0.10;0.10;;;;;;;;;;5056202;28;20050;-43
2023/08/30 11:28:23;;;;;;;0.10;0.10;;;;;;;;;;5068446;28;20052;-42
2023/08/30 11:30:48;;;;;;;0.20;0.20;;;;;;;;;;5075742;28;20062;-48
2023/08/30 11:33:16;;;;;;;0.10;0.10;;;;;;;;;;5068764;28;20087;-44
2023/08/30 11:35:42;;;;;;;;;;;;;;;;;;5061993;28;20047;-43
2023/08/30 11:38:07;;;;;;;0.10;0.10;;;;;;;;;;5077056;28;20142;-44
2023/08/30 11:40:34;;;;;;;0.10;0.10;;;;;;;;;;5079008;28;20052;-45
2023/08/30 11:43:00;;;;;;;0.10;0.10;;;;;;;;;;5058618;28;20048;-45
2023/08/30 11:45:26;;;;;;;0.10;0.10;;;;;;;;;;5079255;28;20075;-46
2023/08/30 11:47:52;;;;;;;0.10;0.10;;;;;;;;;;5076713;28;20078;-43
2023/08/30 11:50:20;;;;;;;0.10;0.10;;;;;;;;;;5085931;28;20118;-45
2023/08/30 11:52:46;;;;;;;0.10;0.10;;;;;;;;;;5087771;28;20047;-42
2023/08/30 11:55:12;;;;;;;0.10;0.10;;;;;;;;;;5081340;28;20052;-41
2023/08/30 11:57:38;;;;;;;0.20;0.20;;;;;;;;;;5085861;28;20044;-44
2023/08/30 12:00:11;;;;;;;0.10;0.10;;;;;;;;;;5085212;28;20048;-45
2023/08/30 12:02:37;;;;;;;0.10;0.10;;;;;;;;;;5089695;28;20494;-42
2023/08/30 12:05:03;;;;;;;0.10;0.10;;;;;;;;;;5084044;28;20047;-42
2023/08/30 12:07:30;;;;;;;0.20;0.20;;;;;;;;;;5087701;28;20069;-44
2023/08/30 12:10:11;;;;;;;0.10;0.10;;;;;;;;;;5085535;28;20064;-43
2023/08/30 12:12:36;;;;;;;0.10;0.10;;;;;;;;;;5082205;28;20071;-46
2023/08/30 12:15:18;;;;;;;0.10;0.10;;;;;;;;;;5086552;28;20491;-45
2023/08/30 12:17:43;;;;;;;0.10;0.10;;;;;;;;;;5084412;28;20562;-42
2023/08/30 12:20:17;;;;;;;0.10;0.10;;;;;;;;;;5083966;28;20051;-43
2023/08/30 12:22:43;;;;;;;0.10;0.10;;;;;;;;;;5082738;28;20040;-43
2023/08/30 12:25:17;;;;;;;0.10;0.10;;;;;;;;;;5083918;28;20185;-42
2023/08/30 12:27:43;;;;;;;0.10;0.10;;;;;;;;;;5084363;28;20100;-43
2023/08/30 12:30:08;;;;;;;0.10;0.10;;;;;;;;;;5074576;28;20361;-45
2023/08/30 12:32:34;;;;;;;0.10;0.10;;;;;;;;;;5056896;28;20040;-42
2023/08/30 12:34:59;;;;;;;0.10;0.10;;;;;;;;;;5069142;28;20070;-43
2023/08/30 12:37:25;;;;;;;0.10;0.10;;;;;;;;;;5080462;28;20055;-43
2023/08/30 12:39:50;;;;;;;0.10;0.10;;;;;;;;;;5074390;28;20075;-44
2023/08/30 12:42:16;;;;;;;0.10;0.10;;;;;;;;;;5087381;28;20048;-42
2023/08/30 12:44:41;;;;;;;0.22;0.22;;;;;;;;;;5076042;28;20051;-45
2023/08/30 12:47:07;;;;;;;0.10;0.10;;;;;;;;;;5090983;28;20048;-45
2023/08/30 12:49:32;;;;;;;0.25;0.17;;;;;;;;;;5085308;28;20473;-42
2023/08/30 12:51:58;;;;;;;0.10;0.10;;;;;;;;;;5085351;28;20056;-43
2023/08/30 12:54:23;;;;;;;0.10;0.10;;;;;;;;;;5083456;28;20545;-43
2023/08/30 12:56:49;;;;;;;0.10;0.10;;;;;;;;;;5080823;28;20096;-43
2023/08/30 12:59:15;;;;;;;0.17;0.17;;;;;;;;;;5092057;28;20040;-46
2023/08/30 13:01:40;;;;;;;0.10;0.10;;;;;;;;;;5096133;28;20071;-43
2023/08/30 13:04:07;;;;;;;0.10;0.10;;;;;;;;;;5094265;28;20086;-43
2023/08/30 13:06:33;;;;;;;0.10;0.10;;;;;;;;;;5100517;28;20096;-43
2023/08/30 13:08:59;;;;;;;0.10;0.10;;;;;;;;;;5094331;28;20043;-44
2023/08/30 13:11:26;;;;;;;0.10;0.10;;;;;;;;;;5087695;28;20294;-43
2023/08/30 13:13:51;;;;;;;0.10;0.10;;;;;;;;;;5091481;28;20350;-43
2023/08/30 13:16:17;;;;;;;0.10;0.10;;;;;;;;;;5083631;28;20047;-42
2023/08/30 13:18:43;;;;;;;0.10;0.10;;;;;;;;;;5093970;28;20047;-42
2023/08/30 13:21:09;;;;;;;0.10;0.10;;;;;;;;;;5088408;28;20480;-42
2023/08/30 13:23:34;;;;;;;0.10;0.10;;;;;;;;;;5093250;28;20039;-42
2023/08/30 13:26:00;;;;;;;0.10;0.10;;;;;;;;;;5080539;28;20464;-42
2023/08/30 13:28:25;;;;;;;0.10;0.10;;;;;;;;;;5086136;28;20134;-43
2023/08/30 13:30:51;;;;;;;0.10;0.10;;;;;;;;;;5093076;28;20454;-43
2023/08/30 13:33:16;;;;;;;0.10;0.10;;;;;;;;;;5080305;28;20052;-44
2023/08/30 13:35:42;;;;;;;0.10;0.10;;;;;;;;;;5081074;28;20048;-44
2023/08/30 13:38:08;;;;;;;0.10;0.10;;;;;;;;;;5080086;28;20101;-42
2023/08/30 13:40:33;;;;;;;0.10;0.10;;;;;;;;;;5087110;28;20158;-43
2023/08/30 13:42:59;;;;;;;0.10;0.10;;;;;;;;;;5085214;28;20040;-43
2023/08/30 13:45:24;;;;;;;0.10;0.10;;;;;;;;;;5094368;28;20142;-42
2023/08/30 13:47:52;;;;;;;0.10;0.10;;;;;;;;;;5091762;28;20047;-45
2023/08/30 13:50:18;;;;;;;0.10;0.10;;;;;;;;;;5082151;28;20486;-44
2023/08/30 13:52:44;;;;;;;0.10;0.10;;;;;;;;;;5086643;28;20051;-44
2023/08/30 13:55:09;;;;;;;0.10;0.10;;;;;;;;;;5077850;28;20138;-43
2023/08/30 13:57:35;;;;;;;0.10;0.10;;;;;;;;;;5078344;28;20140;-43
2023/08/30 14:00:05;;;;;;;0.10;0.10;;;;;;;;;;5095118;28;20241;-42
2023/08/30 14:02:32;;;;;;;0.10;0.10;;;;;;;;;;5095495;28;20206;-42
2023/08/30 14:04:57;;;;;;;0.10;0.10;;;;;;;;;;5093563;28;20356;-42
2023/08/30 14:07:23;;;;;;;0.10;0.10;;;;;;;;;;5094104;28;20048;-44
2023/08/30 14:09:49;;;;;;;0.10;0.10;;;;;;;;;;5094572;28;20069;-44
2023/08/30 14:12:14;;;;;;;0.10;0.10;;;;;;;;;;5095411;28;20051;-43
2023/08/30 14:14:40;;;;;;;0.10;0.10;;;;;;;;;;5096774;28;20108;-42
2023/08/30 14:17:06;;;;;;;0.10;0.10;;;;;;;;;;5099126;28;20044;-42
2023/08/30 14:19:33;;;;;;;0.10;0.10;;;;;;;;;;5088825;28;20537;-42
2023/08/30 14:21:59;;;;;;;0.10;0.10;;;;;;;;;;5098355;28;20067;-45
2023/08/30 14:24:25;;;;;;;0.10;0.10;;;;;;;;;;5098086;28;20120;-43
2023/08/30 14:26:51;;;;;;;0.10;0.10;;;;;;;;;;5098558;28;20047;-44
2023/08/30 14:29:19;;;;;;;0.10;0.10;;;;;;;;;;5092707;28;20050;-42
2023/08/30 14:31:45;;;;;;;0.10;0.10;;;;;;;;;;5098364;28;20048;-42
2023/08/30 14:34:11;;;;;;;0.10;0.10;;;;;;;;;;5097928;28;20453;-43
2023/08/30 14:36:36;;;;;;;0.10;0.10;;;;;;;;;;5098103;28;20169;-41
2023/08/30 14:39:03;;;;;;;0.10;0.10;;;;;;;;;;5083447;28;20433;-46